Nearby METAR Reports

 

KHOB - Hobbs, New Mexico, USA
Distance from station: S 40mi, 65km
Updated: Sat, 31-Jul-2021 3:00am MDT
unable to load KHOB data RC=
unable to load KHOB data RC=
 
KGNC - Seminole, Texas, USA
Distance from station: SE 55mi, 89km
Updated: Sat, 31-Jul-2021 2:35am MDT
Clear
Clear
 Wind from calm
Wind: Calm
Temperature: 72°F , 22°C
Dew Point: 63°F , 17°C
Humidity: 73%
Barometer: 30.19 inHg , 1022.4 hPa
Clouds: Clear
Visibility: 10 miles , 16 km
2021/07/31 08:35 KGNC 310835Z AUTO 00000KT 10SM CLR 22/17 A3019 RMK AO2 T02150171
 
KROW - Roswell, New Mexico, USA
Distance from station: W 67mi, 108km
Updated: Sat, 31-Jul-2021 2:51am MDT
Clear
Clear
 Wind from WSW
Wind: WSW 5 mph , 7 km/h
Temperature: 70°F , 21°C
Dew Point: 61°F , 16°C
Humidity: 73%
Barometer: 30.16 inHg , 1021.3 hPa
Clouds: Clear
Visibility: 10 miles , 16 km
2021/07/31 08:51 KROW 310851Z 25004KT 10SM CLR 21/16 A3016 RMK AO2 SLP142 T02060161 58004
KATS - Artesia, New Mexico, USA
Distance from station: WSW 71mi, 114km
Updated: Sat, 31-Jul-2021 2:55am MDT
Clear
Clear
 Wind from N
Wind: N 7 mph , 11 km/h
Temperature: 72°F , 22°C
Dew Point: 64°F , 18°C
Humidity: 78%
Barometer: 30.17 inHg , 1021.7 hPa
Clouds: Clear
2021/07/31 08:55 KATS 310855Z AUTO 01006KT CLR 22/18 A3017 RMK AO2
 
KCVS - Cannon AFB,Clovis, New Mexico, USA
Distance from station: 0 78mi, 125km
Updated: Sat, 31-Jul-2021 2:58am MDT
Clear
Clear
 Wind from SW
Wind: SW 5 mph , 7 km/h
Temperature: 66°F , 19°C
Dew Point: 63°F , 17°C
Humidity: 88%
Barometer: 30.20 inHg , 1022.7 hPa
Clouds: Clear
Visibility: 10 miles , 16 km
2021/07/31 08:58 KCVS 310858Z AUTO 23004KT 10SM CLR 19/17 A3020 RMK AO2 SLP165 T01940166 57007 $
KE11 - Andrews, Texas, USA
Distance from station: SE 78mi, 126km
Updated: Sat, 31-Jul-2021 2:55am MDT
Clear
Clear
 Wind from calm
Wind: Calm
Temperature: 73°F , 23°C
Dew Point: 63°F , 17°C
Humidity: 69%
Barometer: 30.14 inHg , 1020.7 hPa
Clouds: Clear
Visibility: 10 miles , 16 km
2021/07/31 08:55 KE11 310855Z AUTO 00000KT 10SM CLR 23/17 A3014 RMK AO2 T02290169
 
KCNM - Carlsbad, New Mexico, USA
Distance from station: SW 82mi, 132km
Updated: Sat, 31-Jul-2021 2:53am MDT
Clear
Clear
 Wind from NNW
Wind: NNW 6 mph , 9 km/h
Temperature: 72°F , 22°C
Dew Point: 61°F , 16°C
Humidity: 69%
Barometer: 30.12 inHg , 1020 hPa
Clouds: Clear
Visibility: 10 miles , 16 km
2021/07/31 08:53 KCNM 310853Z AUTO 33005KT 10SM CLR 22/16 A3012 RMK AO2 SLP140 T02170161 56001
KCVN - Clovis Muni, New Mexico, USA
Distance from station: N 83mi, 133km
Updated: Sat, 31-Jul-2021 2:56am MDT
Clear
Clear
 Wind from SW
Wind: SW 6 mph , 9 km/h
Temperature: 64°F , 18°C
Dew Point: 61°F , 16°C
Humidity: 88%
Barometer: 30.21 inHg , 1023 hPa
Clouds: Clear
Visibility: 10 miles , 16 km
2021/07/31 08:56 KCVN 310856Z AUTO 22005KT 10SM CLR 18/16 A3021 RMK AO2 SLP184 T01830161 56009
 
KLBB - Lubbock, Texas, USA
Distance from station: ENE 92mi, 149km
Updated: Sat, 31-Jul-2021 2:53am MDT
Few Clouds
Few Clouds
 Wind from NNE
Wind: NNE 6 mph , 9 km/h
Temperature: 70°F , 21°C
Dew Point: 63°F , 17°C
Humidity: 78%
Barometer: 30.14 inHg , 1020.7 hPa
Clouds: Few Clouds
Visibility: 10 miles , 16 km
Cloud details: Few Clouds 25000 ft
2021/07/31 08:53 KLBB 310853Z 02005KT 10SM FEW250 21/17 A3014 RMK AO2 SLP151 T02110172 58006
KINK - Wink, Texas, USA
Distance from station: S 101mi, 163km
Updated: Sat, 31-Jul-2021 2:53am MDT
Clear
Clear
 Wind from SE
Wind: SE 5 mph , 7 km/h
Temperature: 75°F , 24°C
Dew Point: 57°F , 14°C
Humidity: 54%
Barometer: 30.08 inHg , 1018.6 hPa
Clouds: Clear
Visibility: 10 miles , 16 km
2021/07/31 08:53 KINK 310853Z AUTO 14004KT 10SM CLR 24/14 A3008 RMK AO2 SLP136 T02440139 58003
 
KMAF - Midland, Texas, USA
Distance from station: SE 111mi, 179km
Updated: Sat, 31-Jul-2021 2:53am MDT
Clear
Clear
 Wind from SSW
Wind: SSW 9 mph , 15 km/h
Temperature: 77°F , 25°C
Dew Point: 63°F , 17°C
Humidity: 61%
Barometer: 30.11 inHg , 1019.6 hPa
Clouds: Clear
Visibility: 10 miles , 16 km
2021/07/31 08:53 KMAF 310853Z AUTO 20008KT 10SM CLR 25/17 A3011 RMK AO2 SLP145 T02500167 56002
KSRR - Sierra B/Ruidoso, New Mexico, USA
Distance from station: W 127mi, 204km
Updated: Sat, 31-Jul-2021 2:55am MDT
Partly cloudy
Partly cloudy
 Wind from SW
Wind: SW 8 mph , 13 km/h
Temperature: 59°F , 15°C
Dew Point: 50°F , 10°C
Humidity: 72%
Barometer: 30.40 inHg , 1029.5 hPa
Clouds: Partly cloudy
Visibility: 10 miles , 16 km
Cloud details: Partly cloudy 7000 ft
2021/07/31 08:55 KSRR 310855Z AUTO 23007KT 10SM SCT070 15/10 A3040 RMK AO2
 
KGDP - Guadalupe Pass, Texas, USA
Distance from station: SW 130mi, 209km
Updated: Sat, 31-Jul-2021 2:51am MDT
Clear
Clear
 Wind from NE
Wind: NE 5 mph , 7 km/h
Temperature: 73°F , 23°C
Dew Point: 54°F , 12°C
Humidity: 50%
Barometer: 30.28 inHg , 1025.4 hPa
Clouds: Clear
Visibility: 10 miles , 16 km
2021/07/31 08:51 KGDP 310851Z AUTO 05004KT 10SM CLR 23/12 A3028 RMK AO2 SLP161 T02330122 58004